sensor_id;sensor_type;location;lat;lon;timestamp;P1;durP1;ratioP1;P2;durP2;ratioP2
43487;SDS011;29078;41.932;25.554;2023-03-30T00:02:22;7.27;;;5.10;;
43487;SDS011;29078;41.932;25.554;2023-03-30T00:04:49;9.77;;;5.40;;
43487;SDS011;29078;41.932;25.554;2023-03-30T00:07:15;7.60;;;4.83;;
43487;SDS011;29078;41.932;25.554;2023-03-30T00:09:41;7.87;;;5.00;;
43487;SDS011;29078;41.932;25.554;2023-03-30T00:12:11;7.80;;;5.10;;
43487;SDS011;29078;41.932;25.554;2023-03-30T00:14:37;7.97;;;5.70;;
43487;SDS011;29078;41.932;25.554;2023-03-30T00:17:05;7.50;;;4.93;;
43487;SDS011;29078;41.932;25.554;2023-03-30T00:19:32;9.80;;;5.43;;
43487;SDS011;29078;41.932;25.554;2023-03-30T00:22:01;10.87;;;5.50;;
43487;SDS011;29078;41.932;25.554;2023-03-30T00:24:27;10.20;;;4.90;;
43487;SDS011;29078;41.932;25.554;2023-03-30T00:26:53;9.37;;;5.30;;
43487;SDS011;29078;41.932;25.554;2023-03-30T00:29:18;9.87;;;5.60;;
43487;SDS011;29078;41.932;25.554;2023-03-30T00:31:43;9.60;;;6.03;;
43487;SDS011;29078;41.932;25.554;2023-03-30T00:34:09;12.67;;;8.10;;
43487;SDS011;29078;41.932;25.554;2023-03-30T00:36:34;13.27;;;8.13;;
43487;SDS011;29078;41.932;25.554;2023-03-30T00:39:02;7.53;;;5.07;;
43487;SDS011;29078;41.932;25.554;2023-03-30T00:41:31;7.07;;;5.40;;
43487;SDS011;29078;41.932;25.554;2023-03-30T00:46:27;6.97;;;4.60;;
43487;SDS011;29078;41.932;25.554;2023-03-30T00:48:55;8.43;;;4.70;;
43487;SDS011;29078;41.932;25.554;2023-03-30T00:51:22;5.63;;;3.90;;
43487;SDS011;29078;41.932;25.554;2023-03-30T00:53:49;8.73;;;5.33;;
43487;SDS011;29078;41.932;25.554;2023-03-30T00:56:18;5.97;;;3.90;;
43487;SDS011;29078;41.932;25.554;2023-03-30T00:58:47;7.23;;;4.57;;
43487;SDS011;29078;41.932;25.554;2023-03-30T01:01:14;7.60;;;4.80;;
43487;SDS011;29078;41.932;25.554;2023-03-30T01:03:49;5.33;;;3.57;;
43487;SDS011;29078;41.932;25.554;2023-03-30T01:06:16;6.23;;;4.23;;
43487;SDS011;29078;41.932;25.554;2023-03-30T01:08:45;5.90;;;3.97;;
43487;SDS011;29078;41.932;25.554;2023-03-30T01:11:12;6.57;;;3.87;;
43487;SDS011;29078;41.932;25.554;2023-03-30T01:13:39;6.07;;;3.87;;
43487;SDS011;29078;41.932;25.554;2023-03-30T01:33:01;7.17;;;4.33;;
43487;SDS011;29078;41.932;25.554;2023-03-30T01:35:52;7.67;;;4.20;;
43487;SDS011;29078;41.932;25.554;2023-03-30T01:44:00;5.97;;;4.45;;
43487;SDS011;29078;41.932;25.554;2023-03-30T01:46:43;4.68;;;3.45;;
43487;SDS011;29078;41.932;25.554;2023-03-30T01:49:26;6.50;;;4.90;;
43487;SDS011;29078;41.932;25.554;2023-03-30T01:54:25;5.17;;;4.30;;
43487;SDS011;29078;41.932;25.554;2023-03-30T01:57:13;6.30;;;4.37;;
43487;SDS011;29078;41.932;25.554;2023-03-30T01:59:56;7.83;;;4.60;;
43487;SDS011;29078;41.932;25.554;2023-03-30T02:02:35;7.88;;;5.50;;
43487;SDS011;29078;41.932;25.554;2023-03-30T02:05:02;9.00;;;5.10;;
43487;SDS011;29078;41.932;25.554;2023-03-30T02:07:30;8.63;;;5.70;;
43487;SDS011;29078;41.932;25.554;2023-03-30T02:09:59;11.07;;;5.40;;
43487;SDS011;29078;41.932;25.554;2023-03-30T02:12:29;7.67;;;5.70;;
43487;SDS011;29078;41.932;25.554;2023-03-30T02:14:57;10.87;;;5.73;;
43487;SDS011;29078;41.932;25.554;2023-03-30T02:17:27;10.37;;;6.43;;
43487;SDS011;29078;41.932;25.554;2023-03-30T02:19:54;10.77;;;6.57;;
43487;SDS011;29078;41.932;25.554;2023-03-30T02:22:22;9.33;;;6.40;;
43487;SDS011;29078;41.932;25.554;2023-03-30T02:24:51;9.30;;;6.23;;
43487;SDS011;29078;41.932;25.554;2023-03-30T02:27:18;13.33;;;6.80;;
43487;SDS011;29078;41.932;25.554;2023-03-30T02:29:46;11.10;;;6.63;;
43487;SDS011;29078;41.932;25.554;2023-03-30T02:32:18;9.63;;;5.90;;
43487;SDS011;29078;41.932;25.554;2023-03-30T02:45:21;10.80;;;5.57;;
43487;SDS011;29078;41.932;25.554;2023-03-30T02:48:13;10.27;;;6.23;;
43487;SDS011;29078;41.932;25.554;2023-03-30T02:53:42;9.83;;;6.47;;
43487;SDS011;29078;41.932;25.554;2023-03-30T02:56:15;9.93;;;6.53;;
43487;SDS011;29078;41.932;25.554;2023-03-30T02:59:07;10.00;;;5.57;;
43487;SDS011;29078;41.932;25.554;2023-03-30T03:04:10;19.30;;;9.83;;
43487;SDS011;29078;41.932;25.554;2023-03-30T03:06:37;20.23;;;11.63;;
43487;SDS011;29078;41.932;25.554;2023-03-30T03:09:03;27.37;;;14.57;;
43487;SDS011;29078;41.932;25.554;2023-03-30T03:11:29;10.50;;;6.70;;
43487;SDS011;29078;41.932;25.554;2023-03-30T03:13:54;11.57;;;5.90;;
43487;SDS011;29078;41.932;25.554;2023-03-30T03:16:20;11.47;;;7.03;;
43487;SDS011;29078;41.932;25.554;2023-03-30T03:18:46;14.73;;;8.77;;
43487;SDS011;29078;41.932;25.554;2023-03-30T03:21:12;8.93;;;5.90;;
43487;SDS011;29078;41.932;25.554;2023-03-30T03:23:38;8.50;;;5.83;;
43487;SDS011;29078;41.932;25.554;2023-03-30T03:26:04;8.47;;;5.87;;
43487;SDS011;29078;41.932;25.554;2023-03-30T03:28:31;8.70;;;5.13;;
43487;SDS011;29078;41.932;25.554;2023-03-30T03:30:57;13.33;;;9.00;;
43487;SDS011;29078;41.932;25.554;2023-03-30T03:33:24;10.47;;;7.30;;
43487;SDS011;29078;41.932;25.554;2023-03-30T03:35:51;8.47;;;6.63;;
43487;SDS011;29078;41.932;25.554;2023-03-30T03:38:18;9.90;;;7.50;;
43487;SDS011;29078;41.932;25.554;2023-03-30T03:40:49;11.77;;;7.60;;
43487;SDS011;29078;41.932;25.554;2023-03-30T03:43:15;8.30;;;6.17;;
43487;SDS011;29078;41.932;25.554;2023-03-30T03:45:41;11.00;;;7.20;;
43487;SDS011;29078;41.932;25.554;2023-03-30T03:48:06;9.90;;;6.93;;
43487;SDS011;29078;41.932;25.554;2023-03-30T03:50:32;11.40;;;7.00;;
43487;SDS011;29078;41.932;25.554;2023-03-30T03:52:57;10.27;;;7.33;;
43487;SDS011;29078;41.932;25.554;2023-03-30T03:55:23;11.43;;;7.17;;
43487;SDS011;29078;41.932;25.554;2023-03-30T03:57:48;19.13;;;7.80;;
43487;SDS011;29078;41.932;25.554;2023-03-30T04:00:14;11.47;;;8.23;;
43487;SDS011;29078;41.932;25.554;2023-03-30T04:02:42;19.10;;;11.27;;
43487;SDS011;29078;41.932;25.554;2023-03-30T04:05:09;31.57;;;21.70;;
43487;SDS011;29078;41.932;25.554;2023-03-30T04:07:34;24.03;;;16.67;;
43487;SDS011;29078;41.932;25.554;2023-03-30T04:10:01;21.43;;;15.67;;
43487;SDS011;29078;41.932;25.554;2023-03-30T04:12:28;24.83;;;16.20;;
43487;SDS011;29078;41.932;25.554;2023-03-30T04:14:53;27.43;;;17.43;;
43487;SDS011;29078;41.932;25.554;2023-03-30T04:17:19;21.67;;;15.57;;
43487;SDS011;29078;41.932;25.554;2023-03-30T04:19:47;18.50;;;10.87;;
43487;SDS011;29078;41.932;25.554;2023-03-30T04:22:17;17.77;;;12.27;;
43487;SDS011;29078;41.932;25.554;2023-03-30T04:24:43;19.73;;;12.30;;
43487;SDS011;29078;41.932;25.554;2023-03-30T04:27:09;25.43;;;15.57;;
43487;SDS011;29078;41.932;25.554;2023-03-30T04:29:38;20.63;;;13.90;;
43487;SDS011;29078;41.932;25.554;2023-03-30T04:32:05;22.13;;;12.53;;
43487;SDS011;29078;41.932;25.554;2023-03-30T04:34:31;18.47;;;12.13;;
43487;SDS011;29078;41.932;25.554;2023-03-30T04:36:57;23.63;;;15.70;;
43487;SDS011;29078;41.932;25.554;2023-03-30T04:39:23;24.13;;;15.87;;
43487;SDS011;29078;41.932;25.554;2023-03-30T04:41:49;31.87;;;19.53;;
43487;SDS011;29078;41.932;25.554;2023-03-30T04:44:16;21.70;;;15.37;;
43487;SDS011;29078;41.932;25.554;2023-03-30T04:46:44;22.77;;;15.83;;
43487;SDS011;29078;41.932;25.554;2023-03-30T04:49:10;24.93;;;17.23;;
43487;SDS011;29078;41.932;25.554;2023-03-30T04:51:36;27.03;;;19.83;;
43487;SDS011;29078;41.932;25.554;2023-03-30T04:54:01;22.20;;;15.47;;
43487;SDS011;29078;41.932;25.554;2023-03-30T04:56:27;23.43;;;16.37;;
43487;SDS011;29078;41.932;25.554;2023-03-30T04:58:53;24.60;;;15.87;;
43487;SDS011;29078;41.932;25.554;2023-03-30T05:01:18;18.67;;;12.87;;
43487;SDS011;29078;41.932;25.554;2023-03-30T05:03:44;20.40;;;12.53;;
43487;SDS011;29078;41.932;25.554;2023-03-30T05:06:10;17.97;;;10.80;;
43487;SDS011;29078;41.932;25.554;2023-03-30T05:08:37;17.23;;;11.40;;
43487;SDS011;29078;41.932;25.554;2023-03-30T05:11:02;16.20;;;11.93;;
43487;SDS011;29078;41.932;25.554;2023-03-30T05:13:29;17.60;;;10.47;;
43487;SDS011;29078;41.932;25.554;2023-03-30T05:15:55;15.63;;;10.23;;
43487;SDS011;29078;41.932;25.554;2023-03-30T05:18:21;17.83;;;12.03;;
43487;SDS011;29078;41.932;25.554;2023-03-30T05:20:46;21.33;;;13.43;;
43487;SDS011;29078;41.932;25.554;2023-03-30T05:23:12;33.93;;;17.97;;
43487;SDS011;29078;41.932;25.554;2023-03-30T05:25:40;29.33;;;16.07;;
43487;SDS011;29078;41.932;25.554;2023-03-30T05:28:09;32.20;;;18.73;;
43487;SDS011;29078;41.932;25.554;2023-03-30T05:30:34;43.30;;;23.80;;
43487;SDS011;29078;41.932;25.554;2023-03-30T05:33:00;45.53;;;27.07;;
43487;SDS011;29078;41.932;25.554;2023-03-30T05:35:25;53.43;;;29.90;;
43487;SDS011;29078;41.932;25.554;2023-03-30T05:37:51;54.77;;;30.23;;
43487;SDS011;29078;41.932;25.554;2023-03-30T05:40:18;48.53;;;28.53;;
43487;SDS011;29078;41.932;25.554;2023-03-30T05:42:44;51.77;;;29.50;;
43487;SDS011;29078;41.932;25.554;2023-03-30T05:45:09;51.33;;;29.33;;
43487;SDS011;29078;41.932;25.554;2023-03-30T05:47:35;49.77;;;29.93;;
43487;SDS011;29078;41.932;25.554;2023-03-30T05:50:00;49.47;;;28.20;;
43487;SDS011;29078;41.932;25.554;2023-03-30T05:52:26;55.93;;;32.67;;
43487;SDS011;29078;41.932;25.554;2023-03-30T05:54:52;49.67;;;29.50;;
43487;SDS011;29078;41.932;25.554;2023-03-30T05:57:17;50.27;;;29.57;;
43487;SDS011;29078;41.932;25.554;2023-03-30T05:59:43;45.83;;;27.90;;
43487;SDS011;29078;41.932;25.554;2023-03-30T06:02:09;51.00;;;30.57;;
43487;SDS011;29078;41.932;25.554;2023-03-30T06:04:37;48.60;;;28.13;;
43487;SDS011;29078;41.932;25.554;2023-03-30T06:07:03;48.00;;;28.57;;
43487;SDS011;29078;41.932;25.554;2023-03-30T06:09:28;55.27;;;26.93;;
43487;SDS011;29078;41.932;25.554;2023-03-30T06:11:54;60.97;;;37.23;;
43487;SDS011;29078;41.932;25.554;2023-03-30T06:14:20;51.27;;;31.00;;
43487;SDS011;29078;41.932;25.554;2023-03-30T06:16:46;44.57;;;28.47;;
43487;SDS011;29078;41.932;25.554;2023-03-30T06:19:11;42.33;;;27.07;;
43487;SDS011;29078;41.932;25.554;2023-03-30T06:21:38;41.07;;;25.57;;
43487;SDS011;29078;41.932;25.554;2023-03-30T06:24:04;36.93;;;24.90;;
43487;SDS011;29078;41.932;25.554;2023-03-30T06:26:29;47.33;;;25.10;;
43487;SDS011;29078;41.932;25.554;2023-03-30T06:28:55;43.37;;;25.40;;
43487;SDS011;29078;41.932;25.554;2023-03-30T06:31:20;36.30;;;23.43;;
43487;SDS011;29078;41.932;25.554;2023-03-30T06:33:46;35.47;;;23.30;;
43487;SDS011;29078;41.932;25.554;2023-03-30T06:36:12;36.70;;;23.27;;
43487;SDS011;29078;41.932;25.554;2023-03-30T06:38:38;37.00;;;21.97;;
43487;SDS011;29078;41.932;25.554;2023-03-30T06:41:04;41.47;;;23.20;;
43487;SDS011;29078;41.932;25.554;2023-03-30T06:43:32;38.03;;;23.53;;
43487;SDS011;29078;41.932;25.554;2023-03-30T06:45:58;39.63;;;24.90;;
43487;SDS011;29078;41.932;25.554;2023-03-30T06:48:23;42.07;;;24.80;;
43487;SDS011;29078;41.932;25.554;2023-03-30T06:50:49;18.00;;;13.17;;
43487;SDS011;29078;41.932;25.554;2023-03-30T06:53:16;17.43;;;11.37;;
43487;SDS011;29078;41.932;25.554;2023-03-30T06:55:42;18.43;;;12.70;;
43487;SDS011;29078;41.932;25.554;2023-03-30T06:58:08;19.63;;;13.07;;
43487;SDS011;29078;41.932;25.554;2023-03-30T07:00:34;11.73;;;8.02;;
43487;SDS011;29078;41.932;25.554;2023-03-30T07:02:59;10.80;;;6.43;;
43487;SDS011;29078;41.932;25.554;2023-03-30T07:05:25;6.97;;;5.43;;
43487;SDS011;29078;41.932;25.554;2023-03-30T07:07:53;7.88;;;4.95;;
43487;SDS011;29078;41.932;25.554;2023-03-30T07:10:19;7.82;;;5.03;;
43487;SDS011;29078;41.932;25.554;2023-03-30T07:12:45;9.23;;;5.63;;
43487;SDS011;29078;41.932;25.554;2023-03-30T07:15:11;18.27;;;9.27;;
43487;SDS011;29078;41.932;25.554;2023-03-30T07:17:37;17.63;;;9.43;;
43487;SDS011;29078;41.932;25.554;2023-03-30T07:20:03;8.60;;;6.60;;
43487;SDS011;29078;41.932;25.554;2023-03-30T07:22:30;10.50;;;6.97;;
43487;SDS011;29078;41.932;25.554;2023-03-30T07:24:56;12.43;;;7.78;;
43487;SDS011;29078;41.932;25.554;2023-03-30T07:27:21;10.50;;;6.25;;
43487;SDS011;29078;41.932;25.554;2023-03-30T07:29:50;13.85;;;9.43;;
43487;SDS011;29078;41.932;25.554;2023-03-30T07:32:16;11.05;;;6.88;;
43487;SDS011;29078;41.932;25.554;2023-03-30T07:34:41;11.90;;;6.97;;
43487;SDS011;29078;41.932;25.554;2023-03-30T07:37:07;15.48;;;10.52;;
43487;SDS011;29078;41.932;25.554;2023-03-30T07:39:33;9.48;;;5.80;;
43487;SDS011;29078;41.932;25.554;2023-03-30T07:41:59;5.22;;;4.25;;
43487;SDS011;29078;41.932;25.554;2023-03-30T07:44:24;10.35;;;9.25;;
43487;SDS011;29078;41.932;25.554;2023-03-30T07:46:53;7.47;;;5.65;;
43487;SDS011;29078;41.932;25.554;2023-03-30T07:49:19;6.85;;;5.13;;
43487;SDS011;29078;41.932;25.554;2023-03-30T07:51:44;5.28;;;4.57;;
43487;SDS011;29078;41.932;25.554;2023-03-30T07:54:11;6.43;;;4.93;;
43487;SDS011;29078;41.932;25.554;2023-03-30T07:56:37;7.75;;;4.85;;
43487;SDS011;29078;41.932;25.554;2023-03-30T07:59:03;6.53;;;4.30;;
43487;SDS011;29078;41.932;25.554;2023-03-30T08:01:29;5.57;;;4.47;;
43487;SDS011;29078;41.932;25.554;2023-03-30T08:03:56;5.55;;;4.63;;
43487;SDS011;29078;41.932;25.554;2023-03-30T08:06:22;7.82;;;5.18;;
43487;SDS011;29078;41.932;25.554;2023-03-30T08:08:48;4.90;;;4.32;;
43487;SDS011;29078;41.932;25.554;2023-03-30T08:11:13;7.80;;;4.97;;
43487;SDS011;29078;41.932;25.554;2023-03-30T08:13:40;6.82;;;4.35;;
43487;SDS011;29078;41.932;25.554;2023-03-30T08:16:05;6.32;;;4.70;;
43487;SDS011;29078;41.932;25.554;2023-03-30T08:18:33;7.25;;;5.10;;
43487;SDS011;29078;41.932;25.554;2023-03-30T08:20:58;6.70;;;5.18;;
43487;SDS011;29078;41.932;25.554;2023-03-30T08:23:24;8.05;;;4.70;;
43487;SDS011;29078;41.932;25.554;2023-03-30T08:25:49;6.75;;;4.93;;
43487;SDS011;29078;41.932;25.554;2023-03-30T08:28:19;8.68;;;5.85;;
43487;SDS011;29078;41.932;25.554;2023-03-30T08:30:45;10.70;;;6.95;;
43487;SDS011;29078;41.932;25.554;2023-03-30T08:33:11;11.57;;;6.55;;
43487;SDS011;29078;41.932;25.554;2023-03-30T08:35:39;5.40;;;4.15;;
43487;SDS011;29078;41.932;25.554;2023-03-30T08:38:05;6.18;;;4.65;;
43487;SDS011;29078;41.932;25.554;2023-03-30T08:40:31;7.60;;;4.57;;
43487;SDS011;29078;41.932;25.554;2023-03-30T08:45:21;8.85;;;5.05;;
43487;SDS011;29078;41.932;25.554;2023-03-30T08:47:48;6.63;;;5.15;;
43487;SDS011;29078;41.932;25.554;2023-03-30T08:50:17;8.27;;;5.30;;
43487;SDS011;29078;41.932;25.554;2023-03-30T08:52:53;6.47;;;4.88;;
43487;SDS011;29078;41.932;25.554;2023-03-30T09:00:46;10.05;;;6.90;;
43487;SDS011;29078;41.932;25.554;2023-03-30T09:03:26;12.70;;;8.52;;
43487;SDS011;29078;41.932;25.554;2023-03-30T09:06:06;9.27;;;5.70;;
43487;SDS011;29078;41.932;25.554;2023-03-30T09:08:38;8.68;;;5.47;;
43487;SDS011;29078;41.932;25.554;2023-03-30T09:11:08;6.13;;;5.13;;
43487;SDS011;29078;41.932;25.554;2023-03-30T09:13:37;7.95;;;5.72;;
43487;SDS011;29078;41.932;25.554;2023-03-30T09:16:17;6.63;;;4.38;;
43487;SDS011;29078;41.932;25.554;2023-03-30T09:18:51;6.68;;;5.05;;
43487;SDS011;29078;41.932;25.554;2023-03-30T09:21:21;10.00;;;6.32;;
43487;SDS011;29078;41.932;25.554;2023-03-30T09:23:52;6.45;;;5.00;;
43487;SDS011;29078;41.932;25.554;2023-03-30T09:29:13;6.82;;;4.22;;
43487;SDS011;29078;41.932;25.554;2023-03-30T09:31:54;5.20;;;4.30;;
43487;SDS011;29078;41.932;25.554;2023-03-30T09:34:33;5.15;;;4.35;;
43487;SDS011;29078;41.932;25.554;2023-03-30T09:37:05;7.00;;;3.72;;
43487;SDS011;29078;41.932;25.554;2023-03-30T09:39:35;2.83;;;2.50;;
43487;SDS011;29078;41.932;25.554;2023-03-30T09:47:25;7.18;;;5.18;;
43487;SDS011;29078;41.932;25.554;2023-03-30T09:50:03;8.75;;;6.15;;
43487;SDS011;29078;41.932;25.554;2023-03-30T09:52:31;6.35;;;4.63;;
43487;SDS011;29078;41.932;25.554;2023-03-30T09:57:51;2.90;;;2.30;;
43487;SDS011;29078;41.932;25.554;2023-03-30T10:00:30;6.65;;;3.25;;
43487;SDS011;29078;41.932;25.554;2023-03-30T10:03:00;6.25;;;4.95;;
43487;SDS011;29078;41.932;25.554;2023-03-30T10:05:28;8.02;;;6.22;;
43487;SDS011;29078;41.932;25.554;2023-03-30T10:07:57;4.30;;;3.13;;
43487;SDS011;29078;41.932;25.554;2023-03-30T10:12:53;3.25;;;2.33;;
43487;SDS011;29078;41.932;25.554;2023-03-30T10:15:21;3.40;;;3.10;;
43487;SDS011;29078;41.932;25.554;2023-03-30T10:17:51;3.00;;;2.20;;
43487;SDS011;29078;41.932;25.554;2023-03-30T10:23:13;3.78;;;2.05;;
43487;SDS011;29078;41.932;25.554;2023-03-30T10:25:39;4.47;;;2.90;;
43487;SDS011;29078;41.932;25.554;2023-03-30T10:28:14;3.97;;;3.35;;
43487;SDS011;29078;41.932;25.554;2023-03-30T10:30:53;4.75;;;2.80;;
43487;SDS011;29078;41.932;25.554;2023-03-30T10:33:22;5.55;;;4.40;;
43487;SDS011;29078;41.932;25.554;2023-03-30T10:35:49;3.80;;;3.13;;
43487;SDS011;29078;41.932;25.554;2023-03-30T10:38:17;3.80;;;3.45;;
43487;SDS011;29078;41.932;25.554;2023-03-30T10:40:44;2.50;;;2.30;;
43487;SDS011;29078;41.932;25.554;2023-03-30T10:43:13;2.67;;;2.35;;
43487;SDS011;29078;41.932;25.554;2023-03-30T10:51:26;3.15;;;2.65;;
43487;SDS011;29078;41.932;25.554;2023-03-30T10:54:08;2.50;;;2.30;;
43487;SDS011;29078;41.932;25.554;2023-03-30T10:56:59;2.95;;;2.25;;
43487;SDS011;29078;41.932;25.554;2023-03-30T11:05:32;2.45;;;1.90;;
43487;SDS011;29078;41.932;25.554;2023-03-30T11:07:51;2.70;;;2.50;;
43487;SDS011;29078;41.932;25.554;2023-03-30T11:13:07;2.17;;;1.90;;
43487;SDS011;29078;41.932;25.554;2023-03-30T11:15:40;3.45;;;2.45;;
43487;SDS011;29078;41.932;25.554;2023-03-30T11:18:10;3.55;;;2.17;;
43487;SDS011;29078;41.932;25.554;2023-03-30T11:25:54;9.30;;;7.57;;
43487;SDS011;29078;41.932;25.554;2023-03-30T11:31:24;2.75;;;1.95;;
43487;SDS011;29078;41.932;25.554;2023-03-30T11:36:33;2.00;;;1.80;;
43487;SDS011;29078;41.932;25.554;2023-03-30T11:39:04;2.22;;;1.80;;
43487;SDS011;29078;41.932;25.554;2023-03-30T11:41:37;1.73;;;1.35;;
43487;SDS011;29078;41.932;25.554;2023-03-30T11:44:09;3.70;;;2.55;;
43487;SDS011;29078;41.932;25.554;2023-03-30T11:49:10;3.97;;;2.92;;
43487;SDS011;29078;41.932;25.554;2023-03-30T11:57:20;1.83;;;1.67;;
43487;SDS011;29078;41.932;25.554;2023-03-30T11:59:58;2.03;;;1.83;;
43487;SDS011;29078;41.932;25.554;2023-03-30T12:02:36;4.00;;;1.80;;
43487;SDS011;29078;41.932;25.554;2023-03-30T12:05:13;1.85;;;1.55;;
43487;SDS011;29078;41.932;25.554;2023-03-30T12:07:56;1.63;;;1.52;;
43487;SDS011;29078;41.932;25.554;2023-03-30T12:12:56;3.38;;;2.50;;
43487;SDS011;29078;41.932;25.554;2023-03-30T12:17:57;1.90;;;1.63;;
43487;SDS011;29078;41.932;25.554;2023-03-30T12:20:34;1.80;;;1.70;;
43487;SDS011;29078;41.932;25.554;2023-03-30T12:23:12;3.28;;;2.20;;
43487;SDS011;29078;41.932;25.554;2023-03-30T12:31:18;2.50;;;1.50;;
43487;SDS011;29078;41.932;25.554;2023-03-30T12:36:35;2.08;;;1.75;;
43487;SDS011;29078;41.932;25.554;2023-03-30T12:39:12;4.75;;;3.13;;
43487;SDS011;29078;41.932;25.554;2023-03-30T12:41:51;3.03;;;1.92;;
43487;SDS011;29078;41.932;25.554;2023-03-30T12:50:12;2.33;;;1.83;;
43487;SDS011;29078;41.932;25.554;2023-03-30T12:55:45;1.98;;;1.73;;
43487;SDS011;29078;41.932;25.554;2023-03-30T13:06:01;3.40;;;2.22;;
43487;SDS011;29078;41.932;25.554;2023-03-30T13:08:31;4.50;;;2.85;;
43487;SDS011;29078;41.932;25.554;2023-03-30T13:21:47;4.18;;;2.60;;
43487;SDS011;29078;41.932;25.554;2023-03-30T13:24:21;3.25;;;2.00;;
43487;SDS011;29078;41.932;25.554;2023-03-30T13:26:50;3.88;;;2.58;;
43487;SDS011;29078;41.932;25.554;2023-03-30T13:29:16;2.35;;;2.15;;
43487;SDS011;29078;41.932;25.554;2023-03-30T13:50:50;4.45;;;2.28;;
43487;SDS011;29078;41.932;25.554;2023-03-30T13:53:21;3.83;;;2.42;;
43487;SDS011;29078;41.932;25.554;2023-03-30T13:55:50;3.20;;;2.55;;
43487;SDS011;29078;41.932;25.554;2023-03-30T14:06:14;6.07;;;2.30;;
43487;SDS011;29078;41.932;25.554;2023-03-30T14:08:45;4.30;;;2.40;;
43487;SDS011;29078;41.932;25.554;2023-03-30T14:11:21;3.03;;;2.28;;
43487;SDS011;29078;41.932;25.554;2023-03-30T14:13:51;1.98;;;1.60;;
43487;SDS011;29078;41.932;25.554;2023-03-30T14:16:36;3.65;;;2.42;;
43487;SDS011;29078;41.932;25.554;2023-03-30T14:19:11;2.22;;;1.90;;
43487;SDS011;29078;41.932;25.554;2023-03-30T14:21:41;3.08;;;2.78;;
43487;SDS011;29078;41.932;25.554;2023-03-30T14:24:13;2.70;;;1.83;;
43487;SDS011;29078;41.932;25.554;2023-03-30T14:26:45;4.53;;;2.83;;
43487;SDS011;29078;41.932;25.554;2023-03-30T14:29:18;3.78;;;2.00;;
43487;SDS011;29078;41.932;25.554;2023-03-30T14:31:45;3.38;;;2.33;;
43487;SDS011;29078;41.932;25.554;2023-03-30T14:34:24;4.00;;;2.83;;
43487;SDS011;29078;41.932;25.554;2023-03-30T14:36:54;4.90;;;2.65;;
43487;SDS011;29078;41.932;25.554;2023-03-30T14:39:24;2.67;;;2.47;;
43487;SDS011;29078;41.932;25.554;2023-03-30T14:41:50;7.18;;;6.45;;
43487;SDS011;29078;41.932;25.554;2023-03-30T14:44:17;7.18;;;4.85;;
43487;SDS011;29078;41.932;25.554;2023-03-30T14:46:48;3.22;;;2.53;;
43487;SDS011;29078;41.932;25.554;2023-03-30T14:49:16;3.20;;;2.85;;
43487;SDS011;29078;41.932;25.554;2023-03-30T14:52:00;2.92;;;1.98;;
43487;SDS011;29078;41.932;25.554;2023-03-30T14:54:33;2.00;;;1.80;;
43487;SDS011;29078;41.932;25.554;2023-03-30T14:57:01;5.10;;;3.50;;
43487;SDS011;29078;41.932;25.554;2023-03-30T14:59:29;5.88;;;4.97;;
43487;SDS011;29078;41.932;25.554;2023-03-30T15:01:57;4.00;;;3.28;;
43487;SDS011;29078;41.932;25.554;2023-03-30T15:04:25;2.70;;;1.85;;
43487;SDS011;29078;41.932;25.554;2023-03-30T15:06:53;2.22;;;1.60;;
43487;SDS011;29078;41.932;25.554;2023-03-30T15:09:20;2.30;;;1.83;;
43487;SDS011;29078;41.932;25.554;2023-03-30T15:12:00;2.92;;;1.88;;
43487;SDS011;29078;41.932;25.554;2023-03-30T15:14:29;2.85;;;2.00;;
43487;SDS011;29078;41.932;25.554;2023-03-30T15:16:59;3.33;;;1.88;;
43487;SDS011;29078;41.932;25.554;2023-03-30T15:19:33;3.38;;;2.28;;
43487;SDS011;29078;41.932;25.554;2023-03-30T15:22:03;3.75;;;3.00;;
43487;SDS011;29078;41.932;25.554;2023-03-30T15:24:36;8.48;;;4.82;;
43487;SDS011;29078;41.932;25.554;2023-03-30T15:27:04;7.18;;;5.20;;
43487;SDS011;29078;41.932;25.554;2023-03-30T15:29:32;10.30;;;6.97;;
43487;SDS011;29078;41.932;25.554;2023-03-30T15:32:19;9.13;;;7.22;;
43487;SDS011;29078;41.932;25.554;2023-03-30T15:37:29;5.22;;;3.72;;
43487;SDS011;29078;41.932;25.554;2023-03-30T15:39:56;4.32;;;3.45;;
43487;SDS011;29078;41.932;25.554;2023-03-30T15:42:27;6.07;;;3.90;;
43487;SDS011;29078;41.932;25.554;2023-03-30T15:45:01;8.80;;;5.38;;
43487;SDS011;29078;41.932;25.554;2023-03-30T15:47:28;7.43;;;5.63;;
43487;SDS011;29078;41.932;25.554;2023-03-30T15:49:54;9.50;;;6.30;;
43487;SDS011;29078;41.932;25.554;2023-03-30T15:52:22;9.90;;;5.97;;
43487;SDS011;29078;41.932;25.554;2023-03-30T15:54:50;10.48;;;7.70;;
43487;SDS011;29078;41.932;25.554;2023-03-30T16:00:07;15.63;;;10.13;;
43487;SDS011;29078;41.932;25.554;2023-03-30T16:02:40;14.15;;;9.80;;
43487;SDS011;29078;41.932;25.554;2023-03-30T16:05:18;9.38;;;6.43;;
43487;SDS011;29078;41.932;25.554;2023-03-30T16:07:46;7.53;;;5.32;;
43487;SDS011;29078;41.932;25.554;2023-03-30T16:10:16;10.23;;;7.97;;
43487;SDS011;29078;41.932;25.554;2023-03-30T16:12:45;6.82;;;5.22;;
43487;SDS011;29078;41.932;25.554;2023-03-30T16:15:15;5.82;;;4.50;;
43487;SDS011;29078;41.932;25.554;2023-03-30T16:17:43;5.55;;;4.90;;
43487;SDS011;29078;41.932;25.554;2023-03-30T16:20:51;7.80;;;5.65;;
43487;SDS011;29078;41.932;25.554;2023-03-30T16:22:57;5.72;;;4.28;;
43487;SDS011;29078;41.932;25.554;2023-03-30T16:25:24;5.07;;;4.38;;
43487;SDS011;29078;41.932;25.554;2023-03-30T16:27:52;7.43;;;5.53;;
43487;SDS011;29078;41.932;25.554;2023-03-30T16:30:25;10.25;;;5.63;;
43487;SDS011;29078;41.932;25.554;2023-03-30T16:32:54;7.05;;;5.65;;
43487;SDS011;29078;41.932;25.554;2023-03-30T16:35:20;7.05;;;5.15;;
43487;SDS011;29078;41.932;25.554;2023-03-30T16:37:46;7.93;;;5.15;;
43487;SDS011;29078;41.932;25.554;2023-03-30T16:40:16;7.65;;;5.30;;
43487;SDS011;29078;41.932;25.554;2023-03-30T16:42:49;12.82;;;9.02;;
43487;SDS011;29078;41.932;25.554;2023-03-30T16:45:14;16.58;;;10.95;;
43487;SDS011;29078;41.932;25.554;2023-03-30T16:47:40;20.17;;;13.35;;
43487;SDS011;29078;41.932;25.554;2023-03-30T16:50:22;14.52;;;10.43;;
43487;SDS011;29078;41.932;25.554;2023-03-30T16:52:51;16.30;;;11.40;;
43487;SDS011;29078;41.932;25.554;2023-03-30T16:55:17;13.93;;;10.20;;
43487;SDS011;29078;41.932;25.554;2023-03-30T16:57:43;13.52;;;8.77;;
43487;SDS011;29078;41.932;25.554;2023-03-30T17:00:16;9.95;;;7.70;;
43487;SDS011;29078;41.932;25.554;2023-03-30T17:02:45;12.63;;;7.82;;
43487;SDS011;29078;41.932;25.554;2023-03-30T17:05:11;8.73;;;5.50;;
43487;SDS011;29078;41.932;25.554;2023-03-30T17:07:36;8.20;;;6.07;;
43487;SDS011;29078;41.932;25.554;2023-03-30T17:10:15;11.95;;;8.00;;
43487;SDS011;29078;41.932;25.554;2023-03-30T17:12:55;16.73;;;10.10;;
43487;SDS011;29078;41.932;25.554;2023-03-30T17:15:21;11.57;;;8.32;;
43487;SDS011;29078;41.932;25.554;2023-03-30T17:17:48;20.15;;;11.13;;
43487;SDS011;29078;41.932;25.554;2023-03-30T17:22:45;13.83;;;9.13;;
43487;SDS011;29078;41.932;25.554;2023-03-30T17:25:11;12.35;;;8.00;;
43487;SDS011;29078;41.932;25.554;2023-03-30T17:27:36;15.00;;;9.25;;
43487;SDS011;29078;41.932;25.554;2023-03-30T17:30:24;9.15;;;7.18;;
43487;SDS011;29078;41.932;25.554;2023-03-30T17:32:49;8.82;;;6.70;;
43487;SDS011;29078;41.932;25.554;2023-03-30T17:35:16;11.13;;;6.75;;